sensor_id;sensor_type;location;lat;lon;timestamp;temperature;humidity
27803;DHT22;15182;48.174;11.562;2022-09-25T00:02:16;17.90;99.90
27803;DHT22;15182;48.174;11.562;2022-09-25T00:04:47;17.90;99.90
27803;DHT22;15182;48.174;11.562;2022-09-25T00:07:18;17.90;99.90
27803;DHT22;15182;48.174;11.562;2022-09-25T00:09:49;17.80;99.90
27803;DHT22;15182;48.174;11.562;2022-09-25T00:12:22;17.80;99.90
27803;DHT22;15182;48.174;11.562;2022-09-25T00:14:53;17.80;99.90
27803;DHT22;15182;48.174;11.562;2022-09-25T00:17:25;17.80;99.90
27803;DHT22;15182;48.174;11.562;2022-09-25T00:19:56;17.80;99.90
27803;DHT22;15182;48.174;11.562;2022-09-25T00:22:29;17.70;99.90
27803;DHT22;15182;48.174;11.562;2022-09-25T00:25:00;17.80;99.90
27803;DHT22;15182;48.174;11.562;2022-09-25T00:27:33;17.70;99.90
27803;DHT22;15182;48.174;11.562;2022-09-25T00:30:04;17.70;99.90
27803;DHT22;15182;48.174;11.562;2022-09-25T00:32:37;17.70;99.90
27803;DHT22;15182;48.174;11.562;2022-09-25T00:35:10;17.70;99.90
27803;DHT22;15182;48.174;11.562;2022-09-25T00:37:41;17.70;99.90
27803;DHT22;15182;48.174;11.562;2022-09-25T00:40:13;17.70;99.90
27803;DHT22;15182;48.174;11.562;2022-09-25T00:42:45;17.70;99.90
27803;DHT22;15182;48.174;11.562;2022-09-25T00:45:19;17.70;99.90
27803;DHT22;15182;48.174;11.562;2022-09-25T00:47:54;17.70;99.90
27803;DHT22;15182;48.174;11.562;2022-09-25T00:50:31;17.70;99.90
27803;DHT22;15182;48.174;11.562;2022-09-25T00:53:09;17.70;99.90
27803;DHT22;15182;48.174;11.562;2022-09-25T00:55:43;17.70;99.90
27803;DHT22;15182;48.174;11.562;2022-09-25T00:58:18;17.70;99.90
27803;DHT22;15182;48.174;11.562;2022-09-25T01:00:52;17.70;99.90
27803;DHT22;15182;48.174;11.562;2022-09-25T01:03:24;17.60;99.90
27803;DHT22;15182;48.174;11.562;2022-09-25T01:05:56;17.70;99.90
27803;DHT22;15182;48.174;11.562;2022-09-25T01:08:28;17.60;99.90
27803;DHT22;15182;48.174;11.562;2022-09-25T01:11:01;17.60;99.90
27803;DHT22;15182;48.174;11.562;2022-09-25T01:13:34;17.60;99.90
27803;DHT22;15182;48.174;11.562;2022-09-25T01:16:12;17.60;99.90
27803;DHT22;15182;48.174;11.562;2022-09-25T01:18:52;17.60;99.90
27803;DHT22;15182;48.174;11.562;2022-09-25T01:21:32;17.60;99.90
27803;DHT22;15182;48.174;11.562;2022-09-25T01:24:22;17.50;99.90
27803;DHT22;15182;48.174;11.562;2022-09-25T01:27:29;17.50;99.90
27803;DHT22;15182;48.174;11.562;2022-09-25T01:30:05;17.50;99.90
27803;DHT22;15182;48.174;11.562;2022-09-25T01:32:42;17.50;99.90
27803;DHT22;15182;48.174;11.562;2022-09-25T01:35:21;17.50;99.90
27803;DHT22;15182;48.174;11.562;2022-09-25T01:38:00;17.50;99.90
27803;DHT22;15182;48.174;11.562;2022-09-25T01:40:35;17.40;99.90
27803;DHT22;15182;48.174;11.562;2022-09-25T01:43:15;17.50;99.90
27803;DHT22;15182;48.174;11.562;2022-09-25T01:45:55;17.40;99.90
27803;DHT22;15182;48.174;11.562;2022-09-25T01:48:30;17.40;99.90
27803;DHT22;15182;48.174;11.562;2022-09-25T01:51:06;17.40;99.90
27803;DHT22;15182;48.174;11.562;2022-09-25T01:53:45;17.40;99.90
27803;DHT22;15182;48.174;11.562;2022-09-25T01:56:20;17.30;99.90
27803;DHT22;15182;48.174;11.562;2022-09-25T01:59:02;17.30;99.90
27803;DHT22;15182;48.174;11.562;2022-09-25T02:01:39;17.30;99.90
27803;DHT22;15182;48.174;11.562;2022-09-25T02:04:12;17.30;99.90
27803;DHT22;15182;48.174;11.562;2022-09-25T02:06:50;17.20;99.90
27803;DHT22;15182;48.174;11.562;2022-09-25T02:09:28;17.20;99.90
27803;DHT22;15182;48.174;11.562;2022-09-25T02:12:06;17.20;99.90
27803;DHT22;15182;48.174;11.562;2022-09-25T02:14:42;17.20;99.90
27803;DHT22;15182;48.174;11.562;2022-09-25T02:17:24;17.20;99.90
27803;DHT22;15182;48.174;11.562;2022-09-25T02:20:19;17.20;99.90
27803;DHT22;15182;48.174;11.562;2022-09-25T02:23:07;17.10;99.90
27803;DHT22;15182;48.174;11.562;2022-09-25T02:25:44;17.10;99.90
27803;DHT22;15182;48.174;11.562;2022-09-25T02:28:17;17.10;99.90
27803;DHT22;15182;48.174;11.562;2022-09-25T02:30:49;17.10;99.90
27803;DHT22;15182;48.174;11.562;2022-09-25T02:33:24;17.10;99.90
27803;DHT22;15182;48.174;11.562;2022-09-25T02:35:56;17.00;99.90
27803;DHT22;15182;48.174;11.562;2022-09-25T02:38:30;17.00;99.90
27803;DHT22;15182;48.174;11.562;2022-09-25T02:41:08;17.00;99.90
27803;DHT22;15182;48.174;11.562;2022-09-25T02:43:48;17.00;99.90
27803;DHT22;15182;48.174;11.562;2022-09-25T02:46:31;17.00;99.90
27803;DHT22;15182;48.174;11.562;2022-09-25T02:49:20;17.00;99.90
27803;DHT22;15182;48.174;11.562;2022-09-25T02:52:00;17.00;99.90
27803;DHT22;15182;48.174;11.562;2022-09-25T02:54:38;17.00;99.90
27803;DHT22;15182;48.174;11.562;2022-09-25T02:57:18;17.00;99.90
27803;DHT22;15182;48.174;11.562;2022-09-25T02:59:57;17.00;99.90
27803;DHT22;15182;48.174;11.562;2022-09-25T03:02:30;17.00;99.90
27803;DHT22;15182;48.174;11.562;2022-09-25T03:05:08;17.00;99.90
27803;DHT22;15182;48.174;11.562;2022-09-25T03:07:40;17.00;99.90
27803;DHT22;15182;48.174;11.562;2022-09-25T03:10:29;17.00;99.90
27803;DHT22;15182;48.174;11.562;2022-09-25T03:13:12;17.00;99.90
27803;DHT22;15182;48.174;11.562;2022-09-25T03:15:50;16.90;99.90
27803;DHT22;15182;48.174;11.562;2022-09-25T03:18:26;16.90;99.90
27803;DHT22;15182;48.174;11.562;2022-09-25T03:21:00;16.90;99.90
27803;DHT22;15182;48.174;11.562;2022-09-25T03:23:32;16.90;99.90
27803;DHT22;15182;48.174;11.562;2022-09-25T03:26:03;16.90;99.90
27803;DHT22;15182;48.174;11.562;2022-09-25T03:28:35;16.80;99.90
27803;DHT22;15182;48.174;11.562;2022-09-25T03:31:08;16.90;99.90
27803;DHT22;15182;48.174;11.562;2022-09-25T03:33:41;16.80;99.90
27803;DHT22;15182;48.174;11.562;2022-09-25T03:36:16;16.80;99.90
27803;DHT22;15182;48.174;11.562;2022-09-25T03:38:48;16.80;99.90
27803;DHT22;15182;48.174;11.562;2022-09-25T03:41:25;16.80;99.90
27803;DHT22;15182;48.174;11.562;2022-09-25T03:43:58;16.70;99.90
27803;DHT22;15182;48.174;11.562;2022-09-25T03:46:32;16.70;99.90
27803;DHT22;15182;48.174;11.562;2022-09-25T03:49:05;16.70;99.90
27803;DHT22;15182;48.174;11.562;2022-09-25T03:51:38;16.70;99.90
27803;DHT22;15182;48.174;11.562;2022-09-25T03:54:10;16.70;99.90
27803;DHT22;15182;48.174;11.562;2022-09-25T03:56:41;16.70;99.90
27803;DHT22;15182;48.174;11.562;2022-09-25T03:59:12;16.70;99.90
27803;DHT22;15182;48.174;11.562;2022-09-25T04:01:44;16.60;99.90
27803;DHT22;15182;48.174;11.562;2022-09-25T04:04:15;16.60;99.90
27803;DHT22;15182;48.174;11.562;2022-09-25T04:06:48;16.60;99.90
27803;DHT22;15182;48.174;11.562;2022-09-25T04:09:20;16.60;99.90
27803;DHT22;15182;48.174;11.562;2022-09-25T04:11:51;16.50;99.90
27803;DHT22;15182;48.174;11.562;2022-09-25T04:14:23;16.50;99.90
27803;DHT22;15182;48.174;11.562;2022-09-25T04:16:54;16.50;99.90
27803;DHT22;15182;48.174;11.562;2022-09-25T04:19:25;16.50;99.90
27803;DHT22;15182;48.174;11.562;2022-09-25T04:21:58;16.50;99.90
27803;DHT22;15182;48.174;11.562;2022-09-25T04:24:29;16.50;99.90
27803;DHT22;15182;48.174;11.562;2022-09-25T04:27:16;16.50;99.90
27803;DHT22;15182;48.174;11.562;2022-09-25T04:29:50;16.50;99.90
27803;DHT22;15182;48.174;11.562;2022-09-25T04:32:21;16.40;99.90
27803;DHT22;15182;48.174;11.562;2022-09-25T04:35:10;16.40;99.90
27803;DHT22;15182;48.174;11.562;2022-09-25T04:37:43;16.40;99.90
27803;DHT22;15182;48.174;11.562;2022-09-25T04:40:15;16.40;99.90
27803;DHT22;15182;48.174;11.562;2022-09-25T04:42:46;16.40;99.90
27803;DHT22;15182;48.174;11.562;2022-09-25T04:45:18;16.40;99.90
27803;DHT22;15182;48.174;11.562;2022-09-25T04:47:49;16.30;99.90
27803;DHT22;15182;48.174;11.562;2022-09-25T04:50:21;16.30;99.90
27803;DHT22;15182;48.174;11.562;2022-09-25T04:52:55;16.30;99.90
27803;DHT22;15182;48.174;11.562;2022-09-25T04:55:27;16.30;99.90
27803;DHT22;15182;48.174;11.562;2022-09-25T04:58:01;16.30;99.90
27803;DHT22;15182;48.174;11.562;2022-09-25T05:00:33;16.30;99.90
27803;DHT22;15182;48.174;11.562;2022-09-25T05:03:05;16.40;99.90
27803;DHT22;15182;48.174;11.562;2022-09-25T05:05:37;16.40;99.90
27803;DHT22;15182;48.174;11.562;2022-09-25T05:08:10;16.40;99.90
27803;DHT22;15182;48.174;11.562;2022-09-25T05:10:41;16.40;99.90
27803;DHT22;15182;48.174;11.562;2022-09-25T05:13:15;16.40;99.90
27803;DHT22;15182;48.174;11.562;2022-09-25T05:15:46;16.40;99.90
27803;DHT22;15182;48.174;11.562;2022-09-25T05:18:19;16.40;99.90
27803;DHT22;15182;48.174;11.562;2022-09-25T05:23:22;16.40;99.90
27803;DHT22;15182;48.174;11.562;2022-09-25T05:25:53;16.40;99.90
27803;DHT22;15182;48.174;11.562;2022-09-25T05:28:29;16.40;99.90
27803;DHT22;15182;48.174;11.562;2022-09-25T05:31:01;16.40;99.90
27803;DHT22;15182;48.174;11.562;2022-09-25T05:33:34;16.40;99.90
27803;DHT22;15182;48.174;11.562;2022-09-25T05:36:07;16.40;99.90
27803;DHT22;15182;48.174;11.562;2022-09-25T05:38:41;16.40;99.90
27803;DHT22;15182;48.174;11.562;2022-09-25T05:41:13;16.40;99.90
27803;DHT22;15182;48.174;11.562;2022-09-25T05:43:45;16.40;99.90
27803;DHT22;15182;48.174;11.562;2022-09-25T05:46:17;16.40;99.90
27803;DHT22;15182;48.174;11.562;2022-09-25T05:48:48;16.40;99.90
27803;DHT22;15182;48.174;11.562;2022-09-25T05:51:20;16.40;99.90
27803;DHT22;15182;48.174;11.562;2022-09-25T05:53:54;16.40;99.90
27803;DHT22;15182;48.174;11.562;2022-09-25T05:56:28;16.40;99.90
27803;DHT22;15182;48.174;11.562;2022-09-25T05:58:59;16.40;99.90
27803;DHT22;15182;48.174;11.562;2022-09-25T06:01:30;16.40;99.90
27803;DHT22;15182;48.174;11.562;2022-09-25T06:04:02;16.40;99.90
27803;DHT22;15182;48.174;11.562;2022-09-25T06:06:33;16.40;99.90
27803;DHT22;15182;48.174;11.562;2022-09-25T06:09:06;16.40;99.90
27803;DHT22;15182;48.174;11.562;2022-09-25T06:11:37;16.40;99.90
27803;DHT22;15182;48.174;11.562;2022-09-25T06:14:09;16.40;99.90
27803;DHT22;15182;48.174;11.562;2022-09-25T06:16:41;16.40;99.90
27803;DHT22;15182;48.174;11.562;2022-09-25T06:19:14;16.50;99.90
27803;DHT22;15182;48.174;11.562;2022-09-25T06:21:45;16.50;99.90
27803;DHT22;15182;48.174;11.562;2022-09-25T06:24:19;16.50;99.90
27803;DHT22;15182;48.174;11.562;2022-09-25T06:26:50;16.50;99.90
27803;DHT22;15182;48.174;11.562;2022-09-25T06:29:21;16.50;99.90
27803;DHT22;15182;48.174;11.562;2022-09-25T06:31:53;16.60;99.90
27803;DHT22;15182;48.174;11.562;2022-09-25T06:34:24;16.60;99.90
27803;DHT22;15182;48.174;11.562;2022-09-25T06:36:56;16.50;99.90
27803;DHT22;15182;48.174;11.562;2022-09-25T06:39:29;16.60;99.90
27803;DHT22;15182;48.174;11.562;2022-09-25T06:42:00;16.60;99.90
27803;DHT22;15182;48.174;11.562;2022-09-25T06:44:32;16.60;99.90
27803;DHT22;15182;48.174;11.562;2022-09-25T06:47:03;16.60;99.90
27803;DHT22;15182;48.174;11.562;2022-09-25T06:49:35;16.70;99.90
27803;DHT22;15182;48.174;11.562;2022-09-25T06:52:06;16.70;99.90
27803;DHT22;15182;48.174;11.562;2022-09-25T06:54:39;16.70;99.90
27803;DHT22;15182;48.174;11.562;2022-09-25T06:57:10;16.70;99.90
27803;DHT22;15182;48.174;11.562;2022-09-25T06:59:42;16.80;99.90
27803;DHT22;15182;48.174;11.562;2022-09-25T07:02:13;16.80;99.90
27803;DHT22;15182;48.174;11.562;2022-09-25T07:05:02;16.80;99.90
27803;DHT22;15182;48.174;11.562;2022-09-25T07:07:35;16.90;99.90
27803;DHT22;15182;48.174;11.562;2022-09-25T07:10:09;16.90;99.90
27803;DHT22;15182;48.174;11.562;2022-09-25T07:12:40;17.00;99.90
27803;DHT22;15182;48.174;11.562;2022-09-25T07:15:11;17.00;99.90
27803;DHT22;15182;48.174;11.562;2022-09-25T07:17:43;17.00;99.90
27803;DHT22;15182;48.174;11.562;2022-09-25T07:20:14;17.10;99.90
27803;DHT22;15182;48.174;11.562;2022-09-25T07:22:45;17.10;99.90
27803;DHT22;15182;48.174;11.562;2022-09-25T07:25:18;17.20;99.90
27803;DHT22;15182;48.174;11.562;2022-09-25T07:27:49;17.20;99.90
27803;DHT22;15182;48.174;11.562;2022-09-25T07:30:20;17.20;99.90
27803;DHT22;15182;48.174;11.562;2022-09-25T07:32:51;17.30;99.90
27803;DHT22;15182;48.174;11.562;2022-09-25T07:35:23;17.30;99.90
27803;DHT22;15182;48.174;11.562;2022-09-25T07:37:56;17.30;99.90
27803;DHT22;15182;48.174;11.562;2022-09-25T07:40:29;17.30;99.90
27803;DHT22;15182;48.174;11.562;2022-09-25T07:43:02;17.30;99.90
27803;DHT22;15182;48.174;11.562;2022-09-25T07:45:34;17.40;99.90
27803;DHT22;15182;48.174;11.562;2022-09-25T07:48:05;17.40;99.90
27803;DHT22;15182;48.174;11.562;2022-09-25T07:50:37;17.40;99.90
27803;DHT22;15182;48.174;11.562;2022-09-25T07:53:08;17.40;99.90
27803;DHT22;15182;48.174;11.562;2022-09-25T07:55:41;17.50;99.90
27803;DHT22;15182;48.174;11.562;2022-09-25T07:58:13;17.50;99.90
27803;DHT22;15182;48.174;11.562;2022-09-25T08:00:46;17.50;99.90
27803;DHT22;15182;48.174;11.562;2022-09-25T08:03:18;17.60;99.90
27803;DHT22;15182;48.174;11.562;2022-09-25T08:05:52;17.60;99.90
27803;DHT22;15182;48.174;11.562;2022-09-25T08:08:30;17.60;99.90
27803;DHT22;15182;48.174;11.562;2022-09-25T08:11:04;17.60;99.90
27803;DHT22;15182;48.174;11.562;2022-09-25T08:13:39;17.60;99.90
27803;DHT22;15182;48.174;11.562;2022-09-25T08:16:12;17.60;99.90
27803;DHT22;15182;48.174;11.562;2022-09-25T08:18:45;17.60;99.90
27803;DHT22;15182;48.174;11.562;2022-09-25T08:21:19;17.70;99.90
27803;DHT22;15182;48.174;11.562;2022-09-25T08:23:51;17.70;99.90
27803;DHT22;15182;48.174;11.562;2022-09-25T08:26:24;17.70;99.90
27803;DHT22;15182;48.174;11.562;2022-09-25T08:28:56;17.80;99.90
27803;DHT22;15182;48.174;11.562;2022-09-25T08:31:27;17.80;99.90
27803;DHT22;15182;48.174;11.562;2022-09-25T08:33:58;17.80;99.90
27803;DHT22;15182;48.174;11.562;2022-09-25T08:36:29;17.90;99.90
27803;DHT22;15182;48.174;11.562;2022-09-25T08:39:01;17.90;99.90
27803;DHT22;15182;48.174;11.562;2022-09-25T08:41:36;17.90;99.90
27803;DHT22;15182;48.174;11.562;2022-09-25T08:44:19;17.90;99.90
27803;DHT22;15182;48.174;11.562;2022-09-25T08:46:54;17.90;99.90
27803;DHT22;15182;48.174;11.562;2022-09-25T08:49:47;17.90;99.90
27803;DHT22;15182;48.174;11.562;2022-09-25T08:52:24;17.90;99.90
27803;DHT22;15182;48.174;11.562;2022-09-25T08:54:55;17.80;99.90
27803;DHT22;15182;48.174;11.562;2022-09-25T08:57:31;17.80;99.90
27803;DHT22;15182;48.174;11.562;2022-09-25T09:00:10;17.80;99.90
27803;DHT22;15182;48.174;11.562;2022-09-25T09:02:51;17.80;99.90
27803;DHT22;15182;48.174;11.562;2022-09-25T09:05:27;17.70;99.90
27803;DHT22;15182;48.174;11.562;2022-09-25T09:08:01;17.70;99.90
27803;DHT22;15182;48.174;11.562;2022-09-25T09:10:39;17.70;99.90
27803;DHT22;15182;48.174;11.562;2022-09-25T09:13:21;17.70;99.90
27803;DHT22;15182;48.174;11.562;2022-09-25T09:16:05;17.70;99.90
27803;DHT22;15182;48.174;11.562;2022-09-25T09:18:40;17.70;99.90
27803;DHT22;15182;48.174;11.562;2022-09-25T09:21:19;17.80;99.90
27803;DHT22;15182;48.174;11.562;2022-09-25T09:23:58;17.80;99.90
27803;DHT22;15182;48.174;11.562;2022-09-25T09:26:50;17.80;99.90
27803;DHT22;15182;48.174;11.562;2022-09-25T09:29:48;17.90;99.90
27803;DHT22;15182;48.174;11.562;2022-09-25T09:32:36;17.90;99.90
27803;DHT22;15182;48.174;11.562;2022-09-25T09:35:20;17.90;99.90
27803;DHT22;15182;48.174;11.562;2022-09-25T09:38:02;17.90;99.90
27803;DHT22;15182;48.174;11.562;2022-09-25T09:40:55;18.00;99.90
27803;DHT22;15182;48.174;11.562;2022-09-25T09:43:42;18.00;99.90
27803;DHT22;15182;48.174;11.562;2022-09-25T09:46:27;18.00;99.90
27803;DHT22;15182;48.174;11.562;2022-09-25T09:49:07;18.00;99.90
27803;DHT22;15182;48.174;11.562;2022-09-25T09:51:45;18.10;99.90
27803;DHT22;15182;48.174;11.562;2022-09-25T09:54:23;18.10;99.90
27803;DHT22;15182;48.174;11.562;2022-09-25T09:57:09;18.10;99.90
27803;DHT22;15182;48.174;11.562;2022-09-25T09:59:48;18.20;99.90
27803;DHT22;15182;48.174;11.562;2022-09-25T10:02:29;18.20;99.90
27803;DHT22;15182;48.174;11.562;2022-09-25T10:05:03;18.20;99.90
27803;DHT22;15182;48.174;11.562;2022-09-25T10:07:39;18.30;99.90
27803;DHT22;15182;48.174;11.562;2022-09-25T10:10:14;18.30;99.90
27803;DHT22;15182;48.174;11.562;2022-09-25T10:12:47;18.30;99.90
27803;DHT22;15182;48.174;11.562;2022-09-25T10:15:29;18.30;99.90
27803;DHT22;15182;48.174;11.562;2022-09-25T10:18:04;18.40;99.90
27803;DHT22;15182;48.174;11.562;2022-09-25T10:20:41;18.40;99.90
27803;DHT22;15182;48.174;11.562;2022-09-25T10:23:21;18.50;99.90
27803;DHT22;15182;48.174;11.562;2022-09-25T10:26:00;18.70;99.90
27803;DHT22;15182;48.174;11.562;2022-09-25T10:28:33;18.90;99.90
27803;DHT22;15182;48.174;11.562;2022-09-25T10:31:06;19.10;99.90
27803;DHT22;15182;48.174;11.562;2022-09-25T10:33:39;19.30;99.90
27803;DHT22;15182;48.174;11.562;2022-09-25T10:36:10;19.50;99.90
27803;DHT22;15182;48.174;11.562;2022-09-25T10:38:45;19.70;99.90
27803;DHT22;15182;48.174;11.562;2022-09-25T10:41:20;19.70;99.90
27803;DHT22;15182;48.174;11.562;2022-09-25T10:43:53;19.80;99.90
27803;DHT22;15182;48.174;11.562;2022-09-25T10:46:28;19.80;99.90
27803;DHT22;15182;48.174;11.562;2022-09-25T10:49:22;19.80;99.90
27803;DHT22;15182;48.174;11.562;2022-09-25T10:52:16;19.80;99.90
27803;DHT22;15182;48.174;11.562;2022-09-25T10:54:47;19.80;99.90
27803;DHT22;15182;48.174;11.562;2022-09-25T10:57:29;19.70;99.90
27803;DHT22;15182;48.174;11.562;2022-09-25T11:00:18;19.70;99.90
27803;DHT22;15182;48.174;11.562;2022-09-25T11:02:53;19.70;99.90
27803;DHT22;15182;48.174;11.562;2022-09-25T11:05:31;19.80;99.90
27803;DHT22;15182;48.174;11.562;2022-09-25T11:08:05;20.00;99.90
27803;DHT22;15182;48.174;11.562;2022-09-25T11:10:44;20.10;99.90
27803;DHT22;15182;48.174;11.562;2022-09-25T11:13:21;20.10;99.90
27803;DHT22;15182;48.174;11.562;2022-09-25T11:15:58;20.20;99.90
27803;DHT22;15182;48.174;11.562;2022-09-25T11:18:35;20.20;99.90
27803;DHT22;15182;48.174;11.562;2022-09-25T11:21:18;20.20;99.90
27803;DHT22;15182;48.174;11.562;2022-09-25T11:24:02;20.20;99.90
27803;DHT22;15182;48.174;11.562;2022-09-25T11:26:37;20.20;99.80
27803;DHT22;15182;48.174;11.562;2022-09-25T11:29:17;20.20;99.80
27803;DHT22;15182;48.174;11.562;2022-09-25T11:31:54;20.20;99.50
27803;DHT22;15182;48.174;11.562;2022-09-25T11:34:39;20.20;99.40
27803;DHT22;15182;48.174;11.562;2022-09-25T11:37:23;20.20;99.30
27803;DHT22;15182;48.174;11.562;2022-09-25T11:40:10;20.20;99.20
27803;DHT22;15182;48.174;11.562;2022-09-25T11:43:08;20.10;99.10
27803;DHT22;15182;48.174;11.562;2022-09-25T11:45:44;20.10;99.40
27803;DHT22;15182;48.174;11.562;2022-09-25T11:48:22;20.10;99.40
27803;DHT22;15182;48.174;11.562;2022-09-25T11:51:02;20.10;99.50
27803;DHT22;15182;48.174;11.562;2022-09-25T11:53:44;20.10;99.40
27803;DHT22;15182;48.174;11.562;2022-09-25T11:56:29;20.10;99.40
27803;DHT22;15182;48.174;11.562;2022-09-25T11:59:23;20.10;99.50
27803;DHT22;15182;48.174;11.562;2022-09-25T12:02:00;20.10;99.60
27803;DHT22;15182;48.174;11.562;2022-09-25T12:04:49;20.10;99.60
27803;DHT22;15182;48.174;11.562;2022-09-25T12:07:55;20.10;99.60
27803;DHT22;15182;48.174;11.562;2022-09-25T12:10:40;20.20;99.90
27803;DHT22;15182;48.174;11.562;2022-09-25T12:13:20;20.20;99.80
27803;DHT22;15182;48.174;11.562;2022-09-25T12:16:05;20.30;99.70
27803;DHT22;15182;48.174;11.562;2022-09-25T12:19:09;20.30;99.40
27803;DHT22;15182;48.174;11.562;2022-09-25T12:21:46;20.40;99.50
27803;DHT22;15182;48.174;11.562;2022-09-25T12:24:29;20.30;99.50
27803;DHT22;15182;48.174;11.562;2022-09-25T12:27:11;20.40;99.30
27803;DHT22;15182;48.174;11.562;2022-09-25T12:29:53;20.30;99.10
27803;DHT22;15182;48.174;11.562;2022-09-25T12:33:05;20.30;99.20
27803;DHT22;15182;48.174;11.562;2022-09-25T12:35:47;20.40;99.10
27803;DHT22;15182;48.174;11.562;2022-09-25T12:38:26;20.40;99.20
27803;DHT22;15182;48.174;11.562;2022-09-25T12:41:06;20.40;99.00
27803;DHT22;15182;48.174;11.562;2022-09-25T12:43:50;20.40;99.00
27803;DHT22;15182;48.174;11.562;2022-09-25T12:46:29;20.40;98.80
27803;DHT22;15182;48.174;11.562;2022-09-25T12:49:10;20.40;98.80
27803;DHT22;15182;48.174;11.562;2022-09-25T12:51:48;20.40;98.60
27803;DHT22;15182;48.174;11.562;2022-09-25T12:54:25;20.40;98.60
27803;DHT22;15182;48.174;11.562;2022-09-25T12:57:03;20.40;98.40
27803;DHT22;15182;48.174;11.562;2022-09-25T12:59:45;20.40;98.90
27803;DHT22;15182;48.174;11.562;2022-09-25T13:02:29;20.30;98.70
27803;DHT22;15182;48.174;11.562;2022-09-25T13:05:09;20.30;99.00
27803;DHT22;15182;48.174;11.562;2022-09-25T13:07:56;20.20;98.40
27803;DHT22;15182;48.174;11.562;2022-09-25T13:10:40;20.20;98.20
27803;DHT22;15182;48.174;11.562;2022-09-25T13:13:18;20.20;98.20
27803;DHT22;15182;48.174;11.562;2022-09-25T13:15:56;20.10;98.30
27803;DHT22;15182;48.174;11.562;2022-09-25T13:18:30;20.00;98.30
27803;DHT22;15182;48.174;11.562;2022-09-25T13:21:24;20.00;98.50
27803;DHT22;15182;48.174;11.562;2022-09-25T13:23:58;20.00;98.40
27803;DHT22;15182;48.174;11.562;2022-09-25T13:26:29;19.90;98.40
27803;DHT22;15182;48.174;11.562;2022-09-25T13:29:04;19.80;98.30
27803;DHT22;15182;48.174;11.562;2022-09-25T13:31:45;19.80;98.30
27803;DHT22;15182;48.174;11.562;2022-09-25T13:34:20;19.70;98.20
27803;DHT22;15182;48.174;11.562;2022-09-25T13:36:55;19.60;98.30
27803;DHT22;15182;48.174;11.562;2022-09-25T13:39:29;19.60;98.40
27803;DHT22;15182;48.174;11.562;2022-09-25T13:42:23;19.50;98.80
27803;DHT22;15182;48.174;11.562;2022-09-25T13:45:04;19.40;99.00
27803;DHT22;15182;48.174;11.562;2022-09-25T13:47:56;19.30;99.40
27803;DHT22;15182;48.174;11.562;2022-09-25T13:50:36;19.30;99.50
27803;DHT22;15182;48.174;11.562;2022-09-25T13:53:26;19.30;99.80
27803;DHT22;15182;48.174;11.562;2022-09-25T13:56:44;19.20;99.80
27803;DHT22;15182;48.174;11.562;2022-09-25T13:59:24;19.20;99.90
27803;DHT22;15182;48.174;11.562;2022-09-25T14:02:42;19.10;99.90
27803;DHT22;15182;48.174;11.562;2022-09-25T14:05:18;19.10;99.90
27803;DHT22;15182;48.174;11.562;2022-09-25T14:07:59;19.10;99.90
27803;DHT22;15182;48.174;11.562;2022-09-25T14:10:45;19.00;99.90
27803;DHT22;15182;48.174;11.562;2022-09-25T14:13:20;19.00;99.90
27803;DHT22;15182;48.174;11.562;2022-09-25T14:15:55;18.90;99.90
27803;DHT22;15182;48.174;11.562;2022-09-25T14:18:35;18.90;99.90
27803;DHT22;15182;48.174;11.562;2022-09-25T14:21:09;18.90;99.90
27803;DHT22;15182;48.174;11.562;2022-09-25T14:23:49;18.90;99.90
27803;DHT22;15182;48.174;11.562;2022-09-25T14:26:23;18.90;99.90
27803;DHT22;15182;48.174;11.562;2022-09-25T14:28:56;18.90;99.90
27803;DHT22;15182;48.174;11.562;2022-09-25T14:31:39;18.90;99.90
27803;DHT22;15182;48.174;11.562;2022-09-25T14:34:38;18.90;99.90
27803;DHT22;15182;48.174;11.562;2022-09-25T14:37:33;18.90;99.90
27803;DHT22;15182;48.174;11.562;2022-09-25T14:40:18;18.90;99.90
27803;DHT22;15182;48.174;11.562;2022-09-25T14:43:03;18.90;99.90
27803;DHT22;15182;48.174;11.562;2022-09-25T14:45:58;18.90;99.90
27803;DHT22;15182;48.174;11.562;2022-09-25T14:48:31;18.90;99.90
27803;DHT22;15182;48.174;11.562;2022-09-25T14:51:09;19.00;99.90
27803;DHT22;15182;48.174;11.562;2022-09-25T14:53:47;19.00;99.90
27803;DHT22;15182;48.174;11.562;2022-09-25T14:56:21;19.00;99.90
27803;DHT22;15182;48.174;11.562;2022-09-25T14:58:55;19.00;99.90
27803;DHT22;15182;48.174;11.562;2022-09-25T15:01:29;19.00;99.90
27803;DHT22;15182;48.174;11.562;2022-09-25T15:04:03;19.10;99.90
27803;DHT22;15182;48.174;11.562;2022-09-25T15:06:38;19.10;99.90
27803;DHT22;15182;48.174;11.562;2022-09-25T15:09:29;19.10;99.90
27803;DHT22;15182;48.174;11.562;2022-09-25T15:12:14;19.10;99.90
27803;DHT22;15182;48.174;11.562;2022-09-25T15:14:58;19.10;99.90
27803;DHT22;15182;48.174;11.562;2022-09-25T15:17:31;19.20;99.90
27803;DHT22;15182;48.174;11.562;2022-09-25T15:20:08;19.10;99.90
27803;DHT22;15182;48.174;11.562;2022-09-25T15:22:48;19.20;99.90
27803;DHT22;15182;48.174;11.562;2022-09-25T15:25:25;19.20;99.90
27803;DHT22;15182;48.174;11.562;2022-09-25T15:27:58;19.10;99.90
27803;DHT22;15182;48.174;11.562;2022-09-25T15:30:30;19.10;99.90
27803;DHT22;15182;48.174;11.562;2022-09-25T15:33:03;19.10;99.90
27803;DHT22;15182;48.174;11.562;2022-09-25T15:35:42;19.10;99.90
27803;DHT22;15182;48.174;11.562;2022-09-25T15:38:30;19.10;99.90
27803;DHT22;15182;48.174;11.562;2022-09-25T15:41:07;19.10;99.90
27803;DHT22;15182;48.174;11.562;2022-09-25T15:43:43;19.10;99.90
27803;DHT22;15182;48.174;11.562;2022-09-25T15:46:33;19.10;99.90
27803;DHT22;15182;48.174;11.562;2022-09-25T15:49:07;19.10;99.90
27803;DHT22;15182;48.174;11.562;2022-09-25T15:51:46;19.10;99.90
27803;DHT22;15182;48.174;11.562;2022-09-25T15:54:36;19.10;99.90
27803;DHT22;15182;48.174;11.562;2022-09-25T15:57:14;19.00;99.90
27803;DHT22;15182;48.174;11.562;2022-09-25T15:59:53;19.10;99.90
27803;DHT22;15182;48.174;11.562;2022-09-25T16:02:49;19.10;99.90
27803;DHT22;15182;48.174;11.562;2022-09-25T16:05:46;19.10;99.90
27803;DHT22;15182;48.174;11.562;2022-09-25T16:08:28;19.10;99.90
27803;DHT22;15182;48.174;11.562;2022-09-25T16:11:04;19.10;99.90
27803;DHT22;15182;48.174;11.562;2022-09-25T16:13:45;19.10;99.90
27803;DHT22;15182;48.174;11.562;2022-09-25T16:16:19;19.20;99.90
27803;DHT22;15182;48.174;11.562;2022-09-25T16:18:52;19.20;99.90
27803;DHT22;15182;48.174;11.562;2022-09-25T16:21:28;19.10;99.90